nws-alerts: Checking more than four warning/county codes can delay the loading of your pages. You should use a cron job to get the data.
EllijayWeather Historical Data
Daily Summary for October 10, 2018 Units:  Metric    English   Both
Daily Weekly Monthly Yearly
  High: Low: Average:
Temperature: 25.6 °C 20.6 °C 22.6 °C
Dew Point: 21.7 °C 12.2 °C 15.5 °C
Humidity: 78% 56% 64%
Wind Speed: 14.5km/h 0km/h 1.8km/h
Wind Gust: 17.7km/h - -
Wind- - South
Pressure: 1015.8 hPa 1005.6 hPa -
Precipitation: 20.07 mm    
 
 
Tabular Data for October 10, 2018
Time Temperature Dew Point Pressure Wind Wind Speed Wind Gust Humidity Rainfall Rate (Hourly)
00:04 22.8 °C 18.9 °C 1015.8 hPa SE 6.4 km/h 8 km/h 78% 0 mm
00:09 22.8 °C 18.9 °C 1015.8 hPa SE 6.4 km/h 9.7 km/h 78% 0 mm
00:14 22.8 °C 18.9 °C 1015.8 hPa ESE 8 km/h 9.7 km/h 78% 0 mm
00:19 22.8 °C 18.9 °C 1015.8 hPa SE 6.4 km/h 9.7 km/h 78% 0 mm
00:24 22.8 °C 18.9 °C 1015.8 hPa SE 8 km/h 9.7 km/h 78% 0 mm
00:29 22.8 °C 18.9 °C 1015.8 hPa ESE 9.7 km/h 12.9 km/h 78% 0 mm
00:34 22.8 °C 18.9 °C 1015.8 hPa SE 11.3 km/h 14.5 km/h 78% 0 mm
00:39 22.8 °C 18.9 °C 1015.8 hPa ESE 6.4 km/h 8 km/h 78% 0 mm
00:44 22.8 °C 18.9 °C 1015.8 hPa SE 3.2 km/h 12.9 km/h 78% 0 mm
00:49 22.8 °C 18.9 °C 1015.8 hPa SE 9.7 km/h 11.3 km/h 78% 0 mm
00:54 22.8 °C 18.9 °C 1015.8 hPa SSE 12.9 km/h 14.5 km/h 78% 0 mm
00:59 22.8 °C 18.9 °C 1015.8 hPa SE 9.7 km/h 12.9 km/h 78% 0 mm
01:04 22.8 °C 18.9 °C 1015.8 hPa SE 9.7 km/h 11.3 km/h 78% 0 mm
01:09 22.8 °C 18.9 °C 1015.8 hPa SE 11.3 km/h 17.7 km/h 78% 0 mm
01:14 22.8 °C 18.9 °C 1015.8 hPa ESE 8 km/h 9.7 km/h 78% 0 mm
01:19 22.8 °C 18.9 °C 1015.8 hPa SE 8 km/h 9.7 km/h 78% 0 mm
01:24 22.8 °C 18.9 °C 1015.8 hPa SE 8 km/h 12.9 km/h 78% 0 mm
01:29 22.8 °C 18.9 °C 1015.8 hPa ESE 9.7 km/h 14.5 km/h 78% 0 mm
01:34 22.8 °C 18.9 °C 1015.8 hPa SE 8 km/h 12.9 km/h 78% 0 mm
01:39 22.8 °C 18.9 °C 1015.8 hPa ESE 9.7 km/h 11.3 km/h 78% 0 mm
01:44 22.8 °C 18.9 °C 1015.8 hPa SE 9.7 km/h 14.5 km/h 78% 0 mm
01:49 22.8 °C 18.9 °C 1015.8 hPa SE 9.7 km/h 14.5 km/h 78% 0 mm
01:54 22.8 °C 18.9 °C 1015.8 hPa SE 8 km/h 11.3 km/h 78% 0 mm
01:59 22.2 °C 17.8 °C 1015.8 hPa SE 6.4 km/h 9.7 km/h 76% 0 mm
02:04 21.7 °C 16.7 °C 1015.8 hPa SE 3.2 km/h 9.7 km/h 73% 0 mm
02:09 21.7 °C 16.1 °C 1015.8 hPa ESE 3.2 km/h 8 km/h 71% 0 mm
02:14 21.1 °C 15.6 °C 1015.8 hPa SE 3.2 km/h 9.7 km/h 70% 0 mm
02:19 21.1 °C 15.6 °C 1015.8 hPa SE 3.2 km/h 8 km/h 69% 0 mm
02:24 21.1 °C 15.6 °C 1015.8 hPa SE 3.2 km/h 8 km/h 69% 0 mm
02:29 21.1 °C 15 °C 1015.8 hPa SSE 14.5 km/h 14.5 km/h 68% 0.25 mm
02:34 21.1 °C 15 °C 1015.8 hPa SE 8 km/h 9.7 km/h 68% 0.25 mm
02:39 21.1 °C 15 °C 1015.8 hPa SE 3.2 km/h 8 km/h 67% 0.25 mm
02:44 21.1 °C 14.4 °C 1015.8 hPa SE 1.6 km/h 6.4 km/h 67% 0.25 mm
02:49 21.1 °C 14.4 °C 1015.8 hPa SSE 1.6 km/h 6.4 km/h 67% 0.25 mm
02:54 21.1 °C 14.4 °C 1015.8 hPa Calm   1.6 km/h 66% 0.25 mm
02:59 21.1 °C 14.4 °C 1015.8 hPa SE 1.6 km/h 1.6 km/h 66% 0.25 mm
03:04 20.6 °C 14.4 °C 1015.8 hPa Calm   1.6 km/h 66% 0.25 mm
03:09 20.6 °C 14.4 °C 1015.8 hPa Calm   3.2 km/h 66% 0.25 mm
03:14 20.6 °C 13.9 °C 1015.8 hPa Calm   3.2 km/h 66% 0.25 mm
03:19 20.6 °C 13.9 °C 1015.8 hPa Calm   3.2 km/h 66% 0.25 mm
03:24 20.6 °C 13.9 °C 1015.8 hPa Calm   3.2 km/h 65% 0.25 mm
03:29 20.6 °C 13.9 °C 1015.8 hPa SSE 1.6 km/h 3.2 km/h 65% 0.25 mm
03:34 20.6 °C 13.9 °C 1012.4 hPa Calm   1.6 km/h 64% 0 mm
03:39 20.6 °C 13.9 °C 1012.4 hPa SSE 6.4 km/h 6.4 km/h 64% 0 mm
03:44 20.6 °C 13.3 °C 1012.4 hPa Calm   1.6 km/h 63% 0 mm
03:49 20.6 °C 13.3 °C 1012.4 hPa Calm   3.2 km/h 63% 0 mm
03:54 20.6 °C 13.3 °C 1012.4 hPa SSE 3.2 km/h 3.2 km/h 63% 0 mm
03:59 20.6 °C 13.3 °C 1012.4 hPa SSE 1.6 km/h 3.2 km/h 63% 0 mm
04:04 20.6 °C 13.3 °C 1012.4 hPa SSE 1.6 km/h 1.6 km/h 62% 0 mm
04:09 20.6 °C 13.3 °C 1012.4 hPa SSE 1.6 km/h 1.6 km/h 62% 0 mm
04:14 20.6 °C 13.3 °C 1012.4 hPa SE 1.6 km/h 6.4 km/h 62% 0 mm
04:19 20.6 °C 13.3 °C 1012.4 hPa ESE 1.6 km/h 1.6 km/h 62% 0 mm
04:24 20.6 °C 13.3 °C 1012.4 hPa ESE 3.2 km/h 8 km/h 62% 0 mm
04:29 20.6 °C 13.3 °C 1012.4 hPa SE 1.6 km/h 1.6 km/h 62% 0 mm
04:34 20.6 °C 13.3 °C 1012.4 hPa Calm   6.4 km/h 62% 0 mm
04:39 20.6 °C 13.3 °C 1012.4 hPa Calm     62% 0 mm
04:44 20.6 °C 12.8 °C 1012.4 hPa Calm     61% 0 mm
04:49 20.6 °C 12.8 °C 1012.4 hPa Calm     61% 0 mm
04:54 20.6 °C 12.8 °C 1012.4 hPa Calm   1.6 km/h 61% 0 mm
04:59 20.6 °C 12.8 °C 1012.4 hPa Calm     61% 0 mm
05:04 20.6 °C 12.8 °C 1012.4 hPa Calm     61% 0 mm
05:09 20.6 °C 12.8 °C 1012.4 hPa Calm     61% 0 mm
05:14 20.6 °C 12.8 °C 1012.4 hPa Calm     61% 0 mm
05:19 20.6 °C 12.8 °C 1012.4 hPa SE 1.6 km/h 1.6 km/h 60% 0 mm
05:24 21.1 °C 12.8 °C 1012.4 hPa Calm   3.2 km/h 60% 0 mm
05:29 21.1 °C 12.8 °C 1012.4 hPa SE 1.6 km/h 6.4 km/h 60% 0 mm
05:34 21.1 °C 12.8 °C 1012.4 hPa Calm     60% 0 mm
05:39 21.1 °C 12.8 °C 1012.4 hPa Calm     60% 0 mm
05:44 21.1 °C 12.8 °C 1012.4 hPa Calm     60% 0 mm
05:49 21.1 °C 12.8 °C 1012.4 hPa Calm     60% 0 mm
05:54 21.1 °C 12.8 °C 1012.4 hPa Calm     60% 0 mm
05:59 21.1 °C 12.8 °C 1012.4 hPa Calm     60% 0 mm
06:04 21.1 °C 12.8 °C 1012.4 hPa Calm     60% 0 mm
06:09 21.1 °C 12.8 °C 1012.4 hPa Calm     59% 0 mm
06:14 21.1 °C 12.8 °C 1012.4 hPa Calm     59% 0 mm
06:19 21.1 °C 12.8 °C 1012.4 hPa Calm     59% 0 mm
06:24 21.1 °C 12.8 °C 1012.4 hPa Calm     59% 0 mm
06:29 21.1 °C 12.8 °C 1012.4 hPa Calm     59% 0 mm
06:34 21.1 °C 12.8 °C 1012.4 hPa Calm     59% 0 mm
06:39 21.1 °C 12.8 °C 1012.4 hPa SE 1.6 km/h 1.6 km/h 59% 0 mm
06:44 21.1 °C 12.8 °C 1012.4 hPa Calm   1.6 km/h 59% 0 mm
06:49 21.1 °C 12.8 °C 1012.4 hPa Calm     59% 0 mm
06:54 21.1 °C 12.8 °C 1012.4 hPa Calm     59% 0 mm
06:59 21.1 °C 12.8 °C 1012.4 hPa Calm     59% 0 mm
07:04 21.1 °C 12.8 °C 1012.4 hPa Calm     59% 0 mm
07:09 21.1 °C 12.8 °C 1012.4 hPa Calm     59% 0 mm
07:14 21.1 °C 12.8 °C 1012.4 hPa Calm     59% 0 mm
07:19 21.1 °C 12.8 °C 1012.4 hPa Calm     59% 0 mm
07:24 21.1 °C 12.8 °C 1012.4 hPa Calm     59% 0 mm
07:29 21.1 °C 12.8 °C 1012.4 hPa SE 1.6 km/h 1.6 km/h 59% 0 mm
07:34 21.1 °C 12.8 °C 1012.4 hPa Calm     59% 0 mm
07:39 21.1 °C 12.8 °C 1012.4 hPa Calm     59% 0 mm
07:44 21.1 °C 12.8 °C 1012.4 hPa Calm     59% 0 mm
07:49 21.1 °C 12.8 °C 1012.4 hPa Calm     59% 0 mm
07:54 21.1 °C 12.8 °C 1012.4 hPa Calm     59% 0 mm
07:59 21.1 °C 12.8 °C 1012.4 hPa Calm     59% 0 mm
08:04 21.1 °C 12.8 °C 1012.4 hPa Calm     58% 0 mm
08:09 21.1 °C 12.8 °C 1012.4 hPa Calm     58% 0 mm
08:14 21.1 °C 12.8 °C 1012.4 hPa Calm     58% 0 mm
08:19 21.1 °C 12.8 °C 1012.4 hPa Calm     58% 0 mm
08:24 21.1 °C 12.8 °C 1012.4 hPa Calm     58% 0 mm
08:29 21.7 °C 12.8 °C 1012.4 hPa Calm     58% 0 mm
08:34 21.7 °C 12.8 °C 1012.4 hPa Calm     58% 0 mm
08:39 21.7 °C 12.8 °C 1012.4 hPa SE 1.6 km/h 8 km/h 58% 0 mm
08:44 21.7 °C 12.8 °C 1012.4 hPa Calm   3.2 km/h 58% 0 mm
08:49 21.7 °C 12.8 °C 1012.4 hPa SE 3.2 km/h 3.2 km/h 58% 0 mm
08:54 21.7 °C 12.8 °C 1012.4 hPa SE 1.6 km/h 1.6 km/h 58% 0 mm
08:59 21.7 °C 12.8 °C 1012.4 hPa SE 1.6 km/h 8 km/h 57% 0 mm
09:04 21.7 °C 12.8 °C 1012.4 hPa Calm     57% 0 mm
09:09 21.7 °C 13.3 °C 1012.4 hPa SE 1.6 km/h 1.6 km/h 58% 0 mm
09:14 21.7 °C 12.8 °C 1012.4 hPa Calm   1.6 km/h 57% 0 mm
09:19 21.7 °C 12.8 °C 1012.4 hPa SE 1.6 km/h 3.2 km/h 57% 0 mm
09:24 21.7 °C 12.8 °C 1012.4 hPa SE 1.6 km/h 3.2 km/h 57% 0 mm
09:29 21.7 °C 12.8 °C 1012.4 hPa Calm     57% 0 mm
09:34 21.7 °C 12.8 °C 1012.4 hPa Calm   3.2 km/h 57% 0 mm
09:39 21.7 °C 12.8 °C 1012.4 hPa Calm   1.6 km/h 57% 0 mm
09:44 21.7 °C 12.8 °C 1012.4 hPa Calm     57% 0 mm
09:49 21.7 °C 12.8 °C 1012.4 hPa Calm     57% 0 mm
09:54 21.7 °C 12.8 °C 1012.4 hPa SE 1.6 km/h 1.6 km/h 57% 0 mm
09:59 21.7 °C 12.8 °C 1012.4 hPa Calm     57% 0 mm
10:04 21.7 °C 12.8 °C 1012.4 hPa Calm     57% 0 mm
10:09 21.7 °C 12.8 °C 1012.4 hPa East 1.6 km/h 1.6 km/h 57% 0 mm
10:14 21.7 °C 12.8 °C 1012.4 hPa Calm   1.6 km/h 57% 0 mm
10:19 22.2 °C 13.3 °C 1012.4 hPa East 1.6 km/h 1.6 km/h 57% 0 mm
10:24 22.2 °C 13.3 °C 1012.4 hPa Calm   3.2 km/h 57% 0 mm
10:29 22.2 °C 12.8 °C 1012.4 hPa Calm   1.6 km/h 56% 0 mm
10:34 22.2 °C 13.3 °C 1012.4 hPa Calm   1.6 km/h 56% 0 mm
10:39 22.2 °C 13.3 °C 1012.4 hPa Calm   8 km/h 57% 0 mm
10:44 22.2 °C 13.3 °C 1012.4 hPa Calm     56% 0 mm
10:49 22.8 °C 13.3 °C 1012.4 hPa Calm     56% 0 mm
10:54 22.8 °C 13.3 °C 1012.4 hPa Calm     56% 0 mm
10:59 22.8 °C 13.9 °C 1012.4 hPa Calm   1.6 km/h 57% 0 mm
11:04 22.8 °C 13.9 °C 1012.4 hPa Calm   1.6 km/h 57% 0 mm
11:09 22.8 °C 13.9 °C 1012.4 hPa SE 1.6 km/h 1.6 km/h 57% 0 mm
11:14 22.8 °C 13.9 °C 1012.4 hPa Calm     57% 0 mm
11:19 22.8 °C 13.9 °C 1012.4 hPa Calm     57% 0 mm
11:24 22.8 °C 13.9 °C 1012.4 hPa Calm     57% 0 mm
11:29 22.8 °C 13.9 °C 1012.4 hPa SE 3.2 km/h 3.2 km/h 57% 0 mm
11:34 22.8 °C 13.9 °C 1012.4 hPa Calm   1.6 km/h 57% 0 mm
11:39 22.8 °C 13.9 °C 1012.4 hPa SE 3.2 km/h 6.4 km/h 57% 0 mm
11:44 22.8 °C 13.9 °C 1012.4 hPa Calm   3.2 km/h 57% 0 mm
11:49 22.8 °C 13.9 °C 1012.4 hPa Calm   1.6 km/h 57% 0 mm
11:54 22.8 °C 13.9 °C 1012.4 hPa Calm     57% 0 mm
11:59 23.3 °C 14.4 °C 1012.4 hPa Calm     58% 0 mm
12:04 23.3 °C 14.4 °C 1012.4 hPa Calm     58% 0 mm
12:09 23.3 °C 14.4 °C 1012.4 hPa Calm   1.6 km/h 58% 0 mm
12:14 23.3 °C 14.4 °C 1012.4 hPa Calm     58% 0 mm
12:19 23.3 °C 14.4 °C 1012.4 hPa SE 1.6 km/h 1.6 km/h 58% 0 mm
12:24 23.3 °C 15 °C 1012.4 hPa SE 1.6 km/h 1.6 km/h 59% 0 mm
12:29 23.3 °C 15 °C 1012.4 hPa SE 1.6 km/h 3.2 km/h 60% 0 mm
12:34 23.3 °C 15 °C 1012.4 hPa SE 1.6 km/h 1.6 km/h 60% 0 mm
12:39 23.3 °C 15 °C 1012.4 hPa SE 1.6 km/h 6.4 km/h 60% 0 mm
12:44 23.3 °C 15.6 °C 1012.4 hPa Calm   1.6 km/h 61% 0 mm
12:49 23.3 °C 15.6 °C 1012.4 hPa SE 1.6 km/h 1.6 km/h 61% 0 mm
12:54 23.9 °C 15.6 °C 1012.4 hPa Calm   6.4 km/h 61% 0 mm
12:59 23.9 °C 16.1 °C 1012.4 hPa SE 1.6 km/h 3.2 km/h 63% 0 mm
13:04 23.9 °C 16.1 °C 1012.4 hPa SE 1.6 km/h 1.6 km/h 63% 0 mm
13:09 23.9 °C 16.1 °C 1012.4 hPa SE 1.6 km/h 6.4 km/h 63% 0 mm
13:14 23.9 °C 16.7 °C 1012.4 hPa SE 1.6 km/h 1.6 km/h 64% 0 mm
13:19 23.9 °C 16.7 °C 1012.4 hPa Calm   1.6 km/h 64% 0 mm
13:24 23.9 °C 16.7 °C 1012.4 hPa Calm   1.6 km/h 65% 0 mm
13:29 23.9 °C 16.7 °C 1012.4 hPa Calm     65% 0 mm
13:34 23.9 °C 17.2 °C 1012.4 hPa Calm   1.6 km/h 65% 0 mm
13:39 24.4 °C 17.8 °C 1012.4 hPa SE 3.2 km/h 3.2 km/h 67% 0 mm
13:44 24.4 °C 18.3 °C 1012.4 hPa SE 1.6 km/h 3.2 km/h 69% 0 mm
13:49 24.4 °C 18.3 °C 1012.4 hPa SE 3.2 km/h 6.4 km/h 69% 0 mm
13:54 24.4 °C 18.9 °C 1012.4 hPa SE 1.6 km/h 1.6 km/h 71% 0 mm
13:59 24.4 °C 18.9 °C 1012.4 hPa SE 1.6 km/h 1.6 km/h 71% 0 mm
14:04 24.4 °C 18.9 °C 1012.4 hPa SE 3.2 km/h 3.2 km/h 72% 0 mm
14:09 24.4 °C 19.4 °C 1009 hPa Calm     72% 0 mm
14:14 25 °C 19.4 °C 1009 hPa Calm   3.2 km/h 73% 0 mm
14:19 25 °C 20 °C 1009 hPa SE 1.6 km/h 1.6 km/h 74% 0 mm
14:24 25 °C 20 °C 1009 hPa SE 1.6 km/h 6.4 km/h 74% 0 mm
14:29 25 °C 20 °C 1009 hPa SE 1.6 km/h 1.6 km/h 75% 0 mm
14:34 25 °C 20.6 °C 1009 hPa ESE 3.2 km/h 6.4 km/h 76% 0 mm
14:39 25 °C 20.6 °C 1009 hPa Calm   6.4 km/h 76% 0 mm
14:44 25.6 °C 21.1 °C 1009 hPa Calm   1.6 km/h 76% 0 mm
14:49 25.6 °C 21.1 °C 1009 hPa ESE 1.6 km/h 1.6 km/h 77% 0 mm
14:54 25.6 °C 21.1 °C 1009 hPa ESE 1.6 km/h 1.6 km/h 77% 0 mm
14:59 25.6 °C 21.7 °C 1009 hPa Calm   1.6 km/h 77% 0 mm
15:04 25.6 °C 21.7 °C 1009 hPa Calm     77% 0 mm
15:09 25.6 °C 21.7 °C 1009 hPa ESE 1.6 km/h 1.6 km/h 77% 0 mm
15:14 25.6 °C 21.7 °C 1009 hPa Calm   1.6 km/h 77% 0 mm
15:19 25.6 °C 21.7 °C 1009 hPa Calm     77% 0 mm
15:24 25.6 °C 21.7 °C 1009 hPa Calm   1.6 km/h 77% 0 mm
15:29 25.6 °C 21.7 °C 1009 hPa Calm     77% 0 mm
15:34 25.6 °C 21.7 °C 1009 hPa Calm     77% 0 mm
15:39 25.6 °C 21.1 °C 1009 hPa Calm     77% 0 mm
15:44 25.6 °C 21.1 °C 1009 hPa Calm     77% 0 mm
15:49 25.6 °C 21.1 °C 1009 hPa Calm     77% 0 mm
15:54 25.6 °C 21.1 °C 1009 hPa Calm     76% 0 mm
15:59 25.6 °C 21.7 °C 1009 hPa NW 3.2 km/h 3.2 km/h 77% 0 mm
16:04 25.6 °C 21.7 °C 1009 hPa Calm     77% 0 mm
16:09 25.6 °C 21.7 °C 1009 hPa Calm     77% 0 mm
16:14 25.6 °C 21.7 °C 1009 hPa Calm   1.6 km/h 77% 0 mm
16:19 25.6 °C 21.7 °C 1009 hPa Calm     77% 0 mm
16:24 25.6 °C 21.7 °C 1009 hPa Calm     77% 0 mm
16:29 25.6 °C 21.7 °C 1009 hPa Calm     77% 0 mm
16:34 25.6 °C 21.7 °C 1009 hPa Calm     77% 0 mm
16:39 25.6 °C 21.7 °C 1009 hPa Calm     77% 0 mm
16:44 25.6 °C 21.7 °C 1009 hPa Calm     77% 0 mm
16:49 25.6 °C 21.7 °C 1009 hPa Calm     77% 0 mm
16:54 25.6 °C 21.7 °C 1009 hPa Calm     77% 0 mm
16:59 25.6 °C 21.7 °C 1009 hPa Calm     77% 0 mm
17:04 25.6 °C 21.7 °C 1009 hPa Calm     77% 0 mm
17:09 25.6 °C 21.1 °C 1009 hPa Calm     76% 0 mm
17:14 25.6 °C 21.1 °C 1009 hPa Calm     76% 0 mm
17:19 25.6 °C 21.1 °C 1009 hPa Calm     76% 0 mm
17:24 25.6 °C 21.1 °C 1009 hPa Calm     76% 0 mm
17:29 25.6 °C 21.1 °C 1009 hPa Calm     76% 0 mm
17:34 25.6 °C 20.6 °C 1009 hPa Calm     76% 0 mm
17:39 25 °C 20.6 °C 1009 hPa Calm     76% 0 mm
17:44 25 °C 20.6 °C 1009 hPa Calm     75% 0 mm
17:49 25 °C 20 °C 1009 hPa Calm     74% 0 mm
17:54 25 °C 20 °C 1009 hPa Calm     74% 0 mm
17:59 25 °C 20 °C 1009 hPa Calm     73% 0 mm
18:04 25 °C 19.4 °C 1009 hPa Calm     71% 0 mm
18:09 25 °C 18.9 °C 1009 hPa Calm     71% 0 mm
18:14 24.4 °C 18.9 °C 1009 hPa Calm     70% 0 mm
18:19 24.4 °C 18.9 °C 1009 hPa Calm     70% 0 mm
18:24 24.4 °C 18.3 °C 1009 hPa Calm     70% 0 mm
18:29 24.4 °C 17.8 °C 1009 hPa Calm     68% 0 mm
18:34 23.9 °C 17.8 °C 1009 hPa Calm     68% 0 mm
18:39 23.9 °C 17.2 °C 1009 hPa Calm     67% 0 mm
18:44 23.9 °C 17.2 °C 1009 hPa Calm     66% 0 mm
18:49 23.9 °C 16.7 °C 1009 hPa Calm     65% 0 mm
18:54 23.9 °C 16.7 °C 1009 hPa Calm     64% 0 mm
18:59 23.9 °C 16.1 °C 1009 hPa Calm     63% 0.25 mm
19:04 23.3 °C 15.6 °C 1009 hPa Calm     62% 0.25 mm
19:09 23.3 °C 15.6 °C 1009 hPa Calm     62% 0.25 mm
19:14 23.3 °C 15 °C 1009 hPa Calm     61% 0.25 mm
19:19 23.3 °C 15 °C 1009 hPa Calm   1.6 km/h 60% 0.25 mm
19:24 22.8 °C 15 °C 1009 hPa Calm     60% 0.25 mm
19:29 22.8 °C 14.4 °C 1009 hPa Calm     60% 0.25 mm
19:34 22.8 °C 14.4 °C 1005.6 hPa Calm     60% 0.25 mm
19:39 22.8 °C 14.4 °C 1005.6 hPa Calm     60% 0.25 mm
19:44 22.8 °C 14.4 °C 1005.6 hPa Calm     59% 0.25 mm
19:49 22.8 °C 13.9 °C 1005.6 hPa Calm     59% 0.25 mm
19:54 22.2 °C 13.9 °C 1009 hPa Calm     58% 0.25 mm
19:59 22.2 °C 13.9 °C 1009 hPa Calm     58% 0.25 mm
20:04 22.2 °C 13.9 °C 1009 hPa Calm     58% 0 mm
20:09 22.2 °C 13.9 °C 1009 hPa Calm     58% 0 mm
20:14 22.2 °C 13.9 °C 1009 hPa Calm     58% 0 mm
20:19 22.2 °C 13.3 °C 1009 hPa Calm     57% 0 mm
20:24 22.2 °C 13.3 °C 1009 hPa Calm     57% 0 mm
20:29 22.2 °C 13.3 °C 1009 hPa Calm     57% 0 mm
20:34 22.2 °C 13.3 °C 1009 hPa Calm     57% 0 mm
20:39 22.2 °C 13.3 °C 1009 hPa Calm     57% 0 mm
20:44 22.2 °C 13.3 °C 1009 hPa Calm     57% 0 mm
20:49 22.2 °C 13.3 °C 1009 hPa Calm     57% 0 mm
20:54 22.2 °C 13.3 °C 1009 hPa Calm     57% 0 mm
20:59 22.2 °C 13.3 °C 1009 hPa NW 1.6 km/h 1.6 km/h 57% 0 mm
21:04 22.2 °C 13.3 °C 1009 hPa Calm     57% 0 mm
21:09 22.2 °C 13.3 °C 1009 hPa Calm     57% 0.25 mm
21:14 22.2 °C 12.8 °C 1009 hPa Calm   1.6 km/h 56% 1.78 mm
21:19 22.2 °C 12.8 °C 1009 hPa NW 1.6 km/h 4.8 km/h 56% 2.54 mm
21:24 21.7 °C 12.8 °C 1009 hPa Calm     57% 3.3 mm
21:29 21.7 °C 12.8 °C 1009 hPa Calm     57% 4.57 mm
21:34 21.7 °C 12.8 °C 1009 hPa Calm     56% 6.86 mm
21:39 21.7 °C 12.8 °C 1009 hPa Calm   1.6 km/h 56% 8.13 mm
21:44 21.7 °C 12.8 °C 1009 hPa NW 4.8 km/h 4.8 km/h 56% 8.89 mm
21:49 21.7 °C 12.8 °C 1009 hPa NW 3.2 km/h 4.8 km/h 56% 9.65 mm
21:54 21.7 °C 12.8 °C 1005.6 hPa North 4.8 km/h 4.8 km/h 56% 9.91 mm
21:59 21.7 °C 12.8 °C 1009 hPa NNW 1.6 km/h 4.8 km/h 56% 10.41 mm
22:04 21.7 °C 12.8 °C 1005.6 hPa NW 1.6 km/h 3.2 km/h 56% 10.92 mm
22:09 21.7 °C 12.8 °C 1005.6 hPa NNW 1.6 km/h 3.2 km/h 56% 11.18 mm
22:14 21.7 °C 12.8 °C 1005.6 hPa NW 6.4 km/h 11.3 km/h 56% 10.92 mm
22:19 21.7 °C 12.8 °C 1005.6 hPa NW 3.2 km/h 8 km/h 56% 9.14 mm
22:24 21.7 °C 12.8 °C 1009 hPa NW 3.2 km/h 4.8 km/h 56% 8.64 mm
22:29 21.7 °C 12.8 °C 1009 hPa WNW 1.6 km/h 3.2 km/h 56% 8.13 mm
22:34 21.7 °C 12.8 °C 1009 hPa NNE 3.2 km/h 3.2 km/h 56% 6.86 mm
22:39 21.7 °C 12.8 °C 1005.6 hPa NNW 3.2 km/h 3.2 km/h 56% 4.06 mm
22:44 21.7 °C 12.8 °C 1005.6 hPa North 1.6 km/h 3.2 km/h 56% 3.56 mm
22:49 21.7 °C 12.8 °C 1005.6 hPa Calm   1.6 km/h 56% 2.54 mm
22:54 21.7 °C 12.8 °C 1005.6 hPa NW 6.4 km/h 8 km/h 56% 2.29 mm
22:59 21.7 °C 12.8 °C 1005.6 hPa North 14.5 km/h 16.1 km/h 56% 2.03 mm
23:04 21.7 °C 12.8 °C 1005.6 hPa West 1.6 km/h 4.8 km/h 56% 1.78 mm
23:09 21.7 °C 12.8 °C 1005.6 hPa NW 4.8 km/h 6.4 km/h 56% 1.78 mm
23:14 21.7 °C 12.2 °C 1005.6 hPa WNW 11.3 km/h 11.3 km/h 56% 2.03 mm
23:19 21.7 °C 12.2 °C 1005.6 hPa West 6.4 km/h 11.3 km/h 56% 2.54 mm
23:24 21.7 °C 12.2 °C 1005.6 hPa NW 4.8 km/h 9.7 km/h 56% 3.05 mm
23:29 21.7 °C 12.2 °C 1005.6 hPa NNE 4.8 km/h 6.4 km/h 56% 3.3 mm
23:34 21.7 °C 12.2 °C 1005.6 hPa North 4.8 km/h 6.4 km/h 56% 3.81 mm
23:39 21.7 °C 12.2 °C 1005.6 hPa NNW 6.4 km/h 8 km/h 56% 4.06 mm
23:44 21.1 °C 12.2 °C 1005.6 hPa NNW 1.6 km/h 4.8 km/h 56% 4.57 mm
23:49 21.1 °C 12.2 °C 1005.6 hPa NW 6.4 km/h 6.4 km/h 56% 5.59 mm
23:54 21.1 °C 12.2 °C 1005.6 hPa NW 8 km/h 11.3 km/h 56% 6.6 mm
23:59 21.1 °C 12.2 °C 1005.6 hPa NW 8 km/h 12.9 km/h 56% 7.37 mm
East Ellijay Weather
Compliments of Weather Underground - 2 mb